Latest Weather Observations for Mount Keith

IDW60801

Issued at 3:05 pm WST Thursday 17 April 2014 (issued every 30 minutes, with the page automatically refreshed every 10 minutes)

About weather observations | Map of weather stations | Latest weather observations for WA | Other Formats
Station Details ID: 512019 Name: MOUNT KEITH Lat: -27.29 Lon: 120.55 Height: 542.33 m
Data from the previous 72 hours. | See also: Recent months for locations in Western Australia
Date/Time
WST
Temp
°C
App
Temp
°C
Dew
Point
Rel
Hum
%
Delta-T
°C
Wind Press
QNH
hPa
Press
MSL
hPa
Rain
since 9 am
mm
Dir
 
Spd
km/h
Gust
km/h
Spd
kts
Gust
kts
17/03:00pm 30.2 26.0 1.6 16 14.4 E 13 20 7 11 1019.0 1016.3 0.0
17/02:30pm 30.1 27.2 2.4 17 14.1 ESE 7 13 4 7 1019.0 - 0.0
17/02:00pm 29.4 26.0 1.8 17 13.9 NNE 9 11 5 6 1019.3 1016.6 0.0
17/01:30pm 29.2 25.9 2.5 18 13.6 NNW 9 15 5 8 1019.4 - 0.0
17/01:00pm 28.7 24.4 1.3 17 13.6 N 13 20 7 11 1019.9 1017.3 0.0
17/12:30pm 29.0 25.3 2.3 18 13.5 E 11 15 6 8 1020.3 - 0.0
17/12:00pm 28.5 24.7 1.9 18 13.3 NNE 11 17 6 9 1020.7 1018.1 0.0
17/11:30am 28.6 25.9 3.5 20 12.9 SE 7 13 4 7 1021.3 - 0.0
17/11:00am 28.5 24.9 2.7 19 13.1 N 11 28 6 15 1021.5 1018.8 0.0
17/10:30am 27.7 23.2 2.0 19 12.8 NE 15 19 8 10 1022.0 - 0.0
17/10:00am 27.2 22.6 1.6 19 12.6 N 15 20 8 11 1022.2 1019.6 0.0
17/09:30am 25.5 20.3 2.2 22 11.5 N 19 22 10 12 1022.3 - 0.0
17/09:00am 25.0 20.2 2.4 23 11.1 NNE 17 22 9 12 1022.4 1019.8 0.0
17/08:30am 23.2 18.5 3.2 27 9.9 NNE 17 20 9 11 1022.2 - 0.0
17/08:00am 21.8 18.7 3.5 30 9.0 NNE 9 15 5 8 1022.0 1019.4 0.0
17/07:30am 19.3 18.6 7.1 45 6.3 CALM 0 0 0 0 1021.8 - 0.0
17/07:00am 15.3 14.9 8.3 63 3.6 CALM 0 0 0 0 1021.3 1018.6 0.0
17/06:30am 13.5 13.1 8.1 70 2.8 CALM 0 7 0 4 1021.0 - 0.0
17/06:00am 13.5 12.9 7.5 67 3.0 SE 0 0 0 0 1020.7 1018.1 0.0
17/05:30am 13.8 13.4 8.2 69 2.9 CALM 0 0 0 0 1020.4 - 0.0
17/05:00am 14.2 13.7 7.9 66 3.2 CALM 0 0 0 0 1020.2 1017.6 0.0
17/04:30am 14.5 14.0 8.0 65 3.3 CALM 0 0 0 0 1020.2 - 0.0
17/04:00am 14.5 14.0 8.0 65 3.3 CALM 0 0 0 0 1019.9 1017.3 0.0
17/03:30am 15.5 15.0 7.8 60 4.0 CALM 0 0 0 0 1019.9 - 0.0
17/03:00am 15.8 15.3 7.8 59 4.1 CALM 0 0 0 0 1020.1 1017.5 0.0
17/02:30am 16.0 15.5 7.7 58 4.3 CALM 0 0 0 0 1020.1 - 0.0
17/02:00am 16.3 15.8 7.8 57 4.4 CALM 0 0 0 0 1020.2 1017.6 0.0
17/01:30am 16.3 15.8 7.8 57 4.4 CALM 0 0 0 0 1020.2 - 0.0
17/01:00am 16.9 16.3 7.5 54 4.8 CALM 0 0 0 0 1020.3 1017.7 0.0
17/12:30am 17.6 16.9 7.1 50 5.4 CALM 0 0 0 0 1020.4 - 0.0
17/12:00am 18.1 17.5 7.2 49 5.6 SE 0 0 0 0 1020.4 1017.8 0.0
 
Date/Time
WST
Temp
°C
App
Temp
°C
Dew
Point
Rel
Hum
%
Delta-T
°C
Wind Press
QNH
hPa
Press
MSL
hPa
Rain
since 9 am
mm
Dir
 
Spd
km/h
Gust
km/h
Spd
kts
Gust
kts
16/11:30pm 18.8 18.0 6.3 44 6.4 CALM 0 4 0 2 1020.5 - 0.0
16/11:00pm 19.9 17.3 5.9 40 7.1 ESE 9 11 5 6 1020.6 1018.0 0.0
16/10:30pm 20.7 17.3 5.9 38 7.6 ESE 13 17 7 9 1020.7 - 0.0
16/10:00pm 21.1 18.4 5.5 36 7.9 SSE 9 11 5 6 1020.7 1018.1 0.0
16/09:30pm 21.5 18.8 5.4 35 8.2 SSE 9 11 5 6 1020.5 - 0.0
16/09:00pm 22.1 19.4 5.5 34 8.5 SSE 9 11 5 6 1020.4 1017.8 0.0
16/08:30pm 22.9 19.9 5.8 33 8.9 SE 11 13 6 7 1020.4 - 0.0
16/08:00pm 23.3 20.2 5.7 32 9.1 SE 11 15 6 8 1020.1 1017.5 0.0
16/07:30pm 24.2 20.7 5.5 30 9.7 SE 13 15 7 8 1019.9 - 0.0
16/07:00pm 24.5 21.3 5.3 29 9.9 SE 11 15 6 8 1019.7 1017.0 0.0
16/06:30pm 25.5 22.7 5.1 27 10.6 SE 9 13 5 7 1019.5 - 0.0
16/06:00pm 26.8 23.1 4.6 24 11.5 ESE 13 19 7 10 1019.3 1016.6 0.0
16/05:30pm 28.2 24.1 4.5 22 12.4 ESE 15 20 8 11 1019.0 - 0.0
16/05:00pm 29.0 24.8 3.8 20 13.1 E 15 20 8 11 1018.7 1016.1 0.0
16/04:30pm 29.4 24.5 4.1 20 13.2 SE 19 24 10 13 1018.6 - 0.0
16/04:00pm 29.6 25.1 4.3 20 13.3 SE 17 33 9 18 1018.6 1016.0 0.0
16/03:30pm 30.1 25.9 4.0 19 13.7 E 15 20 8 11 1018.8 - 0.0
16/03:00pm 30.0 24.7 3.1 18 13.9 ENE 20 24 11 13 1019.0 1016.3 0.0
16/02:30pm 29.4 25.1 3.4 19 13.5 E 15 26 8 14 1019.1 - 0.0
16/02:00pm 29.5 24.9 3.5 19 13.5 ESE 17 30 9 16 1019.3 1016.6 0.0
16/01:30pm 29.4 24.9 4.1 20 13.2 ESE 17 24 9 13 1019.6 - 0.0
16/01:00pm 30.4 24.9 4.2 19 13.8 SE 22 61 12 33 1019.7 1017.0 0.0
16/12:30pm 29.3 25.9 4.0 20 13.2 E 11 22 6 12 1020.4 - 0.0
16/12:00pm 29.0 24.4 3.8 20 13.1 ENE 17 24 9 13 1020.8 1018.2 0.0
16/11:30am 27.9 24.0 3.6 21 12.5 NNE 13 20 7 11 1021.5 - 0.0
16/11:00am 27.2 23.2 3.0 21 12.2 NNE 13 19 7 10 1022.0 1019.4 0.0
16/10:30am 26.5 22.8 2.4 21 12.0 ENE 11 17 6 9 1022.3 - 0.0
16/10:00am 26.1 21.8 3.4 23 11.5 NNE 15 20 8 11 1022.4 1019.8 0.0
16/09:30am 25.5 21.4 4.6 26 10.8 NNE 15 19 8 10 1022.5 - 0.0
16/09:00am 23.8 19.3 4.2 28 9.9 NE 17 20 9 11 1022.6 1020.0 0.0
16/08:30am 22.6 17.7 4.2 30 9.3 NNE 19 24 10 13 1022.6 - 0.0
16/08:00am 21.0 16.6 4.6 34 8.2 NNE 17 24 9 13 1022.5 1019.9 0.0
16/07:30am 19.2 16.3 4.6 38 7.2 NNE 9 17 5 9 1022.3 - 0.0
16/07:00am 16.1 15.3 6.3 52 4.9 CALM 0 0 0 0 1022.0 1019.4 0.0
16/06:30am 13.1 11.8 6.2 63 3.4 NE 2 6 1 3 1021.7 - 0.0
16/06:00am 13.4 12.5 6.0 61 3.6 CALM 0 0 0 0 1021.5 1018.8 0.0
16/05:30am 13.8 12.8 5.4 57 4.1 CALM 0 0 0 0 1021.3 - 0.0
16/05:00am 13.5 11.4 5.9 60 3.7 NE 6 7 3 4 1021.2 1018.5 0.0
16/04:30am 14.0 12.4 6.4 60 3.8 NE 4 6 2 3 1021.0 - 0.0
16/04:00am 14.4 12.2 6.0 57 4.1 NE 7 9 4 5 1020.7 1018.1 0.0
16/03:30am 14.7 12.6 6.0 56 4.3 NNE 6 7 3 4 1020.7 - 0.0
16/03:00am 14.2 13.2 5.8 57 4.1 CALM 0 0 0 0 1020.7 1018.1 0.0
16/02:30am 14.4 13.3 5.2 54 4.5 CALM 0 0 0 0 1020.8 - 0.0
16/02:00am 15.0 14.0 5.5 53 4.6 CALM 0 0 0 0 1021.2 1018.5 0.0
16/01:30am 14.4 13.4 5.7 56 4.3 CALM 0 0 0 0 1021.4 - 0.0
16/01:00am 15.6 14.3 4.3 47 5.4 CALM 0 2 0 1 1021.6 1019.0 0.0
16/12:30am 16.1 13.4 3.5 43 6.0 SE 7 9 4 5 1021.6 - 0.0
16/12:00am 15.7 13.2 4.7 48 5.3 SSE 7 9 4 5 1021.7 1019.1 0.0
 
Date/Time
WST
Temp
°C
App
Temp
°C
Dew
Point
Rel
Hum
%
Delta-T
°C
Wind Press
QNH
hPa
Press
MSL
hPa
Rain
since 9 am
mm
Dir
 
Spd
km/h
Gust
km/h
Spd
kts
Gust
kts
15/11:30pm 16.5 14.1 5.2 47 5.6 SSE 7 9 4 5 1021.7 - 0.0
15/11:00pm 17.3 14.7 4.3 42 6.3 S 7 7 4 4 1021.9 1019.3 0.0
15/10:30pm 16.9 15.7 4.6 44 6.0 CALM 0 0 0 0 1021.9 - 0.0
15/10:00pm 17.3 16.2 4.9 44 6.1 CALM 0 0 0 0 1022.2 1019.6 0.0
15/09:30pm 17.8 16.4 3.7 39 6.8 CALM 0 0 0 0 1022.1 - 0.0
15/09:00pm 19.2 15.9 2.6 33 7.9 SSE 9 9 5 5 1022.1 1019.5 0.0
15/08:30pm 20.3 17.0 2.2 30 8.6 SE 9 11 5 6 1022.1 - 0.0
15/08:00pm 21.4 17.2 1.6 27 9.4 ESE 13 15 7 8 1022.0 1019.4 0.0
15/07:30pm 21.6 17.8 1.8 27 9.4 SE 11 13 6 7 1021.7 - 0.0
15/07:00pm 22.5 19.0 1.5 25 10.0 SSE 9 11 5 6 1021.4 1018.7 0.0
15/06:30pm 23.7 20.1 0.7 22 10.9 SSE 9 11 5 6 1021.0 - 0.0
15/06:00pm 25.0 21.3 -0.2 19 11.8 SE 9 11 5 6 1020.7 1018.1 0.0
15/05:30pm 27.3 23.1 -0.7 16 13.3 SSE 11 17 6 9 1020.5 - 0.0
15/05:00pm 28.0 24.3 -0.1 16 13.5 SSE 9 17 5 9 1020.3 1017.7 0.0
15/04:30pm 28.3 24.1 -0.8 15 13.9 S 11 19 6 10 1020.2 - 0.0
15/04:00pm 28.4 24.7 0.2 16 13.7 E 9 17 5 9 1020.1 1017.5 0.0
15/03:30pm 28.6 25.2 2.0 18 13.4 SE 9 15 5 8 1020.1 - 0.0
15/03:00pm 28.0 22.8 -0.1 16 13.5 SE 17 20 9 11 1020.3 1017.7 0.0
15/02:30pm 27.6 24.1 3.3 21 12.4 S 11 20 6 11 1020.3 - 0.0
15/02:00pm 27.6 23.4 4.0 22 12.2 NNE 15 20 8 11 1020.4 1017.8 0.0
15/01:30pm 27.3 24.0 4.4 23 11.9 NNE 11 20 6 11 1020.6 - 0.0
15/01:00pm 26.6 23.2 3.8 23 11.6 NE 11 20 6 11 1020.8 1018.2 0.0
15/12:30pm 26.4 22.9 5.4 26 11.0 NE 13 20 7 11 1021.5 - 0.0
15/12:00pm 25.8 22.5 6.4 29 10.3 NE 13 20 7 11 1022.1 1019.5 0.0
15/11:30am 24.8 22.4 7.0 32 9.5 E 9 20 5 11 1022.6 - 0.0
15/11:00am 24.2 21.6 7.8 35 8.9 NNE 11 17 6 9 1023.1 1020.4 0.0
15/10:30am 23.2 20.1 7.3 36 8.5 NNE 13 20 7 11 1023.5 - 0.0
15/10:00am 22.2 19.4 8.7 42 7.3 NNE 13 19 7 10 1023.7 1021.1 0.0
15/09:30am 21.0 18.0 9.3 47 6.4 NNE 15 20 8 11 1023.9 - 0.0
15/09:00am 20.0 16.6 9.3 50 5.8 NE 17 22 9 12 1023.9 1021.3 0.0
15/08:30am 19.2 15.8 9.1 52 5.5 NE 17 22 9 12 1024.0 - 0.0
15/08:00am 17.6 15.2 8.7 56 4.7 NE 11 19 6 10 1024.2 1021.6 0.0
15/07:30am 16.2 14.6 8.9 62 3.9 NE 7 11 4 6 1024.0 - 0.0
15/07:00am 14.3 14.1 9.1 71 2.7 CALM 0 0 0 0 1023.5 1020.9 0.0
15/06:30am 12.1 11.8 8.8 80 1.7 CALM 0 4 0 2 1023.2 - 0.0
15/06:00am 12.1 10.4 8.4 78 1.9 NE 7 9 4 5 1023.0 1020.3 0.0
15/05:30am 12.2 11.9 8.5 78 1.9 CALM 0 0 0 0 1022.8 - 0.0
15/05:00am 12.5 10.8 8.4 76 2.1 E 7 7 4 4 1022.7 1020.1 0.0
15/04:30am 13.1 11.6 8.6 74 2.3 E 6 7 3 4 1022.8 - 0.0
15/04:00am 13.3 11.8 8.4 72 2.5 E 6 6 3 3 1022.7 1020.1 0.0
15/03:30am 14.1 12.4 8.3 68 3.0 E 7 9 4 5 1022.6 - 0.0
15/03:00am 14.6 12.5 8.3 66 3.2 E 9 11 5 6 1022.6 1020.0 0.0
15/02:30am 15.6 13.2 8.6 63 3.7 E 11 13 6 7 1022.7 - 0.0
15/02:00am 16.1 13.3 8.6 61 3.9 E 13 15 7 8 1022.8 1020.2 0.0
15/01:30am 16.1 13.2 8.3 60 4.1 E 13 15 7 8 1022.8 - 0.0
15/01:00am 15.4 13.3 8.2 62 3.7 ESE 9 13 5 7 1022.8 1020.2 0.0
15/12:30am 15.9 13.8 8.2 60 4.0 SE 9 11 5 6 1022.8 - 0.0
15/12:00am 16.1 14.3 7.8 58 4.3 SE 7 7 4 4 1022.7 1020.1 0.0
 
Date/Time
WST
Temp
°C
App
Temp
°C
Dew
Point
Rel
Hum
%
Delta-T
°C
Wind Press
QNH
hPa
Press
MSL
hPa
Rain
since 9 am
mm
Dir
 
Spd
km/h
Gust
km/h
Spd
kts
Gust
kts
14/11:30pm 16.9 14.8 8.1 56 4.6 SSE 9 13 5 7 1022.7 - 0.0
14/11:00pm 17.0 14.8 7.9 55 4.7 SE 9 9 5 5 1022.7 1020.1 0.0
14/10:30pm 17.0 15.1 7.4 53 4.9 ESE 7 9 4 5 1023.0 - 0.0
14/10:00pm 17.8 15.8 7.2 50 5.4 ESE 7 9 4 5 1023.1 1020.4 0.0
14/09:30pm 18.7 16.4 7.5 48 5.8 SE 9 11 5 6 1023.0 - 0.0
14/09:00pm 19.3 17.0 7.4 46 6.2 SE 9 9 5 5 1023.0 1020.3 0.0
14/08:30pm 20.0 17.2 7.1 43 6.7 ESE 11 13 6 7 1022.8 - 0.0
14/08:00pm 20.3 17.8 6.6 41 7.1 ESE 9 13 5 7 1022.7 1020.1 0.0
14/07:30pm 21.5 18.5 6.2 37 7.9 ESE 11 15 6 8 1022.5 - 0.0
14/07:00pm 22.3 19.7 6.1 35 8.4 SE 9 13 5 7 1022.2 1019.6 0.0
14/06:30pm 23.1 20.0 5.5 32 9.1 SE 11 13 6 7 1021.9 - 0.0
14/06:00pm 24.4 20.2 5.7 30 9.7 SE 17 24 9 13 1021.6 1019.0 0.0
14/05:30pm 25.2 20.4 5.4 28 10.3 SE 20 28 11 15 1021.3 - 0.0
14/05:00pm 25.9 21.1 5.5 27 10.7 SE 20 30 11 16 1021.0 1018.3 0.0
14/04:30pm 26.3 21.1 5.3 26 11.0 SE 22 30 12 16 1020.7 - 0.0
14/04:00pm 26.5 21.7 4.9 25 11.2 SE 19 28 10 15 1020.6 1018.0 0.0
14/03:30pm 26.7 21.0 5.1 25 11.3 ESE 24 35 13 19 1020.6 - 0.0

Other Formats:

Comma delimited format used in spreadsheet applications
http://www.bom.gov.au/fwo/IDW60801/IDW60801.99434.axf

JavaScript Object Notation format (JSON) in row-major order
http://www.bom.gov.au/fwo/IDW60801/IDW60801.99434.json